createdAt,value
2023-05-20T00:06:37.174Z,12.9
2023-05-20T00:21:37.114Z,12.6
2023-05-20T00:36:37.172Z,12.5
2023-05-20T00:51:37.177Z,12.4
2023-05-20T01:06:37.160Z,12.1
2023-05-20T01:21:37.151Z,11.8
2023-05-20T01:36:37.112Z,11.8
2023-05-20T01:51:37.176Z,11.4
2023-05-20T02:06:37.140Z,11.2
2023-05-20T02:21:37.160Z,11.1
2023-05-20T02:36:37.158Z,10.9
2023-05-20T02:51:37.161Z,10.6
2023-05-20T03:06:37.170Z,10.5
2023-05-20T03:21:37.186Z,10.3
2023-05-20T03:36:37.170Z,10.2
2023-05-20T03:51:37.122Z,10.1
2023-05-20T04:06:37.172Z,10.1
2023-05-20T04:21:37.202Z,10.1
2023-05-20T04:36:37.145Z,10.1
2023-05-20T04:51:37.190Z,10
2023-05-20T05:06:37.205Z,10.2
2023-05-20T05:21:37.194Z,10.4
2023-05-20T05:36:37.156Z,10.7
2023-05-20T05:51:38.958Z,11
2023-05-20T06:06:37.138Z,11.4
2023-05-20T06:21:37.114Z,11.8
2023-05-20T06:36:37.096Z,11.9
2023-05-20T06:51:37.185Z,12.3
2023-05-20T07:06:37.221Z,12.6
2023-05-20T07:21:37.186Z,12.9
2023-05-20T07:36:37.150Z,13.4
2023-05-20T07:51:37.134Z,13.8
2023-05-20T08:06:37.166Z,14.1
2023-05-20T08:21:37.158Z,14.2
2023-05-20T08:36:37.109Z,14.8
2023-05-20T08:51:37.186Z,14.7
2023-05-20T09:06:37.169Z,15.2
2023-05-20T09:21:37.171Z,15.5
2023-05-20T09:36:37.133Z,16.1
2023-05-20T09:51:37.174Z,16.4
2023-05-20T10:06:37.161Z,16.4
2023-05-20T10:21:37.128Z,16.6
2023-05-20T10:36:37.118Z,16.9
2023-05-20T10:51:37.174Z,17.3
2023-05-20T11:06:37.158Z,17.8
2023-05-20T11:21:37.141Z,17.8
2023-05-20T11:36:37.187Z,17.8
2023-05-20T11:51:37.159Z,18.2
2023-05-20T12:06:37.149Z,18.1
2023-05-20T12:21:37.183Z,18.1
2023-05-20T12:36:37.174Z,18.6
2023-05-20T12:51:37.201Z,19.6
2023-05-20T13:06:37.170Z,19.6
2023-05-20T13:21:37.157Z,19.9
2023-05-20T13:36:37.392Z,19.7
2023-05-20T13:51:37.377Z,21.4
2023-05-20T14:06:37.327Z,21.2
2023-05-20T14:21:37.107Z,19.6
2023-05-20T14:36:37.122Z,19.7
2023-05-20T14:51:37.121Z,19.5
2023-05-20T15:06:37.400Z,19.2
2023-05-20T15:21:37.345Z,19.3
2023-05-20T15:36:37.397Z,19.4
2023-05-20T15:51:37.147Z,19.1
2023-05-20T16:06:37.178Z,18.9
2023-05-20T16:21:37.179Z,18.9
2023-05-20T16:36:37.154Z,18.8
2023-05-20T16:51:37.158Z,18.6
2023-05-20T17:06:37.118Z,18.4
2023-05-20T17:21:37.165Z,18.1
2023-05-20T17:36:37.129Z,18
2023-05-20T17:51:37.184Z,17.8
2023-05-20T18:06:37.198Z,17.8
2023-05-20T18:21:37.129Z,17.6
2023-05-20T18:36:37.184Z,17.4
2023-05-20T18:51:37.170Z,17.2
2023-05-20T19:06:37.179Z,17.1
2023-05-20T19:21:37.186Z,16.9
2023-05-20T19:36:37.178Z,16.6
2023-05-20T19:51:37.154Z,16.2
2023-05-20T20:06:37.168Z,15.9
2023-05-20T20:21:37.117Z,15.7
2023-05-20T20:36:37.125Z,15.4
2023-05-20T20:51:37.177Z,15.1
2023-05-20T21:06:37.162Z,14.9
2023-05-20T21:21:37.141Z,14.8
2023-05-20T21:36:37.196Z,14.5
2023-05-20T21:51:37.183Z,14.3
2023-05-20T22:06:37.117Z,14.1
2023-05-20T22:21:46.478Z,14
2023-05-20T22:36:37.181Z,13.8
2023-05-20T22:51:37.179Z,13.6
2023-05-20T23:06:37.154Z,13.4
2023-05-20T23:21:37.187Z,13.4
2023-05-20T23:36:37.128Z,13.2
2023-05-20T23:51:37.194Z,13.1
